Accueil
METAR-TAF:

METAR-TAF

Aéroports :

Aéroport d'Anvers

Anvers, Belgique

latitude: 51-12N, longitude: 004-28E, altitude: 12 m

Observation

Le bulletin a été fait il y a 43 minutes, à 16:50 UTC
Vent 7 kt de sud-ouest, variant entre sud et ouest/sud-ouest
Température 19°C
Humidité 46%
Pression 1012 hPa
Visibilité 10 km ou plus
pas de nuages en-dessous de 1500 mètres et pas de cumulonimbus.

METAR: EBAW 131650Z 22007KT 180V240 CAVOK 19/07 Q1012 NOSIG

Heure: 19:33 (17:33 UTC)

Prévision

Le bulletin a été fait il y a 3 heures et 13 minutes, à 14:20 UTC
Prévision valable du 13 à 15 UTC au 13 à 24 UTC
Vent 7 kt de sud-ouest
Visibilité 10 km ou plus
Nuages épars à une hauteur de 4500 ft

TAF: EBAW 131420Z 1315/1324 23007KT 9999 SCT045

Observations et prévisions météorologiques de plus de 4000 aéroports (messages METAR et TAF).

Les stations disponibles sont représentées par des disques jaunes et rouges sur la carte.

Passer la souris dessus pour voir le nom de la station.

Cliquer dessus pour voir les observations et prévisions météorologiques.

Pour changer de carte: cliquez sur les boutons verts avec une croix noire pour zoomer, sur le bouton vert avec un tiret pour effectuer un zoom arrière, ou sur les flèches vertes pour les cartes adjacentes.


METAR-TAF: